createdAt,value
2023-02-02T00:03:59.435Z,94.17
2023-02-02T00:09:02.450Z,95.50
2023-02-02T00:14:04.232Z,93.78
2023-02-02T00:19:09.447Z,92.43
2023-02-02T00:24:13.960Z,90.83
2023-02-02T00:29:19.223Z,90.68
2023-02-02T00:34:23.179Z,91.15
2023-02-02T00:39:28.651Z,89.43
2023-02-02T00:44:48.733Z,89.53
2023-02-02T00:49:50.419Z,89.48
2023-02-02T00:54:52.320Z,89.19
2023-02-02T00:59:53.973Z,90.00
2023-02-02T01:04:55.746Z,88.54
2023-02-02T01:09:57.609Z,87.73
2023-02-02T01:14:59.266Z,88.21
2023-02-02T01:20:01.133Z,87.17
2023-02-02T01:25:02.879Z,86.58
2023-02-02T01:30:05.157Z,85.50
2023-02-02T01:35:07.687Z,85.33
2023-02-02T01:40:10.730Z,85.73
2023-02-02T01:45:26.078Z,84.77
2023-02-02T01:50:32.585Z,86.01
2023-02-02T01:55:37.328Z,85.68
2023-02-02T02:00:41.620Z,86.23
2023-02-02T02:05:53.824Z,85.58
2023-02-02T02:10:56.345Z,85.18
2023-02-02T02:16:20.759Z,84.29
2023-02-02T02:22:02.787Z,83.93
2023-02-02T02:27:32.309Z,84.19
2023-02-02T02:33:03.010Z,82.67
2023-02-02T02:38:11.382Z,81.64
2023-02-02T02:43:20.225Z,80.71
2023-02-02T02:48:23.154Z,81.42
2023-02-02T02:53:25.363Z,80.54
2023-02-02T02:58:41.748Z,80.09
2023-02-02T03:04:06.782Z,80.47
2023-02-02T03:09:13.184Z,80.62
2023-02-02T03:14:15.070Z,79.90
2023-02-02T03:19:16.746Z,79.44
2023-02-02T03:24:18.389Z,79.10
2023-02-02T03:29:20.259Z,80.16
2023-02-02T03:34:21.943Z,79.64
2023-02-02T03:39:23.662Z,79.92
2023-02-02T03:44:25.359Z,77.79
2023-02-02T03:49:27.044Z,78.56
2023-02-02T03:54:28.931Z,79.10
2023-02-02T03:59:30.595Z,77.59
2023-02-02T04:04:32.206Z,78.26
2023-02-02T04:09:33.955Z,78.42
2023-02-02T04:14:35.630Z,77.20
2023-02-02T04:19:37.531Z,77.30
2023-02-02T04:24:39.230Z,77.78
2023-02-02T04:29:40.974Z,78.14
2023-02-02T04:34:43.219Z,78.43
2023-02-02T04:39:44.858Z,77.71
2023-02-02T04:44:46.648Z,77.39
2023-02-02T04:49:48.297Z,78.76
2023-02-02T04:54:49.970Z,78.48
2023-02-02T04:59:51.697Z,78.71
2023-02-02T05:04:53.357Z,77.86
2023-02-02T05:09:55.096Z,76.93
2023-02-02T05:14:56.880Z,77.42
2023-02-02T05:19:59.041Z,77.81
2023-02-02T05:25:00.755Z,78.13
2023-02-02T05:30:02.422Z,78.51
2023-02-02T05:35:04.551Z,77.33
2023-02-02T05:40:06.637Z,77.48
2023-02-02T05:45:08.847Z,77.19
2023-02-02T05:50:11.465Z,76.80
2023-02-02T05:55:13.237Z,75.47
2023-02-02T06:00:15.253Z,75.57
2023-02-02T06:05:16.973Z,76.57
2023-02-02T06:10:18.850Z,77.80
2023-02-02T06:15:20.689Z,77.51
2023-02-02T06:20:22.628Z,77.94
2023-02-02T06:25:24.592Z,77.55
2023-02-02T06:30:27.668Z,76.62
2023-02-02T06:35:29.474Z,76.54
2023-02-02T06:40:31.207Z,77.37
2023-02-02T06:45:32.927Z,77.46
2023-02-02T06:50:34.566Z,77.69
2023-02-02T06:55:36.260Z,77.91
2023-02-02T07:00:38.311Z,78.61
2023-02-02T07:05:40.202Z,78.54
2023-02-02T07:11:12.825Z,79.47
2023-02-02T07:16:05.972Z,80.49
2023-02-02T07:21:07.668Z,80.05
2023-02-02T07:26:10.826Z,80.27
2023-02-02T07:31:26.875Z,80.77
2023-02-02T07:36:28.591Z,81.67
2023-02-02T07:41:30.679Z,82.33
2023-02-02T07:46:32.599Z,81.31
2023-02-02T07:51:34.350Z,79.78
2023-02-02T07:56:38.493Z,80.74
2023-02-02T08:01:40.477Z,79.71
2023-02-02T08:06:42.279Z,80.19
2023-02-02T08:11:43.934Z,80.49
2023-02-02T08:16:45.739Z,80.79
2023-02-02T08:21:47.445Z,81.84
2023-02-02T08:26:49.156Z,80.92
2023-02-02T08:31:50.989Z,80.04
2023-02-02T08:36:52.682Z,81.29
2023-02-02T08:41:57.575Z,80.48
2023-02-02T08:46:59.245Z,81.49
2023-02-02T08:52:01.021Z,82.30
2023-02-02T08:57:02.696Z,81.12
2023-02-02T09:02:04.486Z,83.90
2023-02-02T09:07:06.634Z,84.51
2023-02-02T09:12:08.391Z,84.76
2023-02-02T09:17:10.093Z,84.17
2023-02-02T09:22:11.767Z,83.22
2023-02-02T09:27:13.470Z,83.83
2023-02-02T09:32:15.260Z,83.61
2023-02-02T09:37:16.925Z,84.85
2023-02-02T09:42:29.290Z,85.26
2023-02-02T09:47:47.685Z,85.71
2023-02-02T09:52:58.215Z,85.91
2023-02-02T09:58:10.408Z,86.31
2023-02-02T10:03:37.812Z,86.39
2023-02-02T10:08:46.051Z,86.77
2023-02-02T10:13:50.857Z,85.33
2023-02-02T10:19:09.674Z,87.48
2023-02-02T10:24:24.245Z,90.01
2023-02-02T10:29:48.192Z,91.66
2023-02-02T10:35:10.941Z,96.88
2023-02-02T10:40:31.266Z,96.47
2023-02-02T10:45:33.522Z,96.86
2023-02-02T10:50:35.419Z,97.40
2023-02-02T10:55:58.392Z,96.03
2023-02-02T11:01:07.863Z,95.79
2023-02-02T11:06:32.054Z,96.77
2023-02-02T11:11:45.391Z,96.86
2023-02-02T11:17:00.753Z,95.51
2023-02-02T11:22:04.234Z,95.53
2023-02-02T11:27:17.750Z,96.08
2023-02-02T11:32:25.482Z,95.31
2023-02-02T11:37:27.458Z,97.57
2023-02-02T11:42:44.924Z,98.01
2023-02-02T11:47:46.989Z,98.23
2023-02-02T11:52:49.312Z,98.87
2023-02-02T11:58:20.548Z,98.32
2023-02-02T12:03:39.763Z,97.81
2023-02-02T12:08:41.501Z,100.00
2023-02-02T12:14:07.898Z,100.00
2023-02-02T12:19:40.106Z,99.02
2023-02-02T12:24:54.933Z,100.00
2023-02-02T12:30:10.748Z,96.86
2023-02-02T12:35:37.281Z,96.54
2023-02-02T12:40:57.156Z,93.59
2023-02-02T12:46:23.523Z,93.31
2023-02-02T12:51:35.310Z,93.40
2023-02-02T12:57:00.309Z,97.43
2023-02-02T13:02:19.750Z,99.59
2023-02-02T13:07:30.992Z,98.95
2023-02-02T13:12:37.797Z,98.12
2023-02-02T13:17:44.165Z,96.80
2023-02-02T13:22:49.871Z,93.44
2023-02-02T13:27:52.871Z,90.80
2023-02-02T13:33:02.388Z,91.45
2023-02-02T13:38:25.573Z,87.38
2023-02-02T13:43:59.822Z,92.52
2023-02-02T13:49:15.085Z,91.09
2023-02-02T13:54:25.798Z,96.49
2023-02-02T13:59:33.457Z,94.90
2023-02-02T14:04:35.692Z,93.58
2023-02-02T14:09:38.130Z,92.22
2023-02-02T14:14:46.938Z,90.65
2023-02-02T14:19:56.790Z,89.49
2023-02-02T14:24:58.544Z,89.39
2023-02-02T14:30:00.449Z,90.47
2023-02-02T14:35:08.132Z,94.27
2023-02-02T14:40:15.880Z,95.37
2023-02-02T14:45:27.191Z,94.81
2023-02-02T14:50:38.159Z,94.18
2023-02-02T14:56:13.429Z,95.03
2023-02-02T15:01:18.168Z,93.85
2023-02-02T15:06:22.950Z,94.27
2023-02-02T15:11:32.035Z,94.15
2023-02-02T15:16:37.615Z,94.35
2023-02-02T15:21:41.182Z,94.70
2023-02-02T15:26:44.668Z,94.29
2023-02-02T15:31:50.177Z,95.57
2023-02-02T15:36:56.778Z,96.40
2023-02-02T15:42:20.802Z,98.45
2023-02-02T15:47:33.436Z,99.53
2023-02-02T15:52:47.000Z,98.44
2023-02-02T15:57:48.819Z,97.29
2023-02-02T16:02:57.373Z,98.93
2023-02-02T16:08:06.043Z,100.00
2023-02-02T16:13:17.467Z,100.00
2023-02-02T16:18:19.156Z,100.00
2023-02-02T16:23:28.000Z,100.00
2023-02-02T16:28:29.961Z,100.00
2023-02-02T16:33:41.355Z,100.00
2023-02-02T16:38:43.673Z,100.00
2023-02-02T16:43:45.381Z,100.00
2023-02-02T16:48:59.782Z,100.00
2023-02-02T16:54:17.904Z,100.00
2023-02-02T16:59:27.202Z,100.00
2023-02-02T17:04:32.463Z,100.00
2023-02-02T17:09:37.517Z,100.00
2023-02-02T17:14:56.651Z,100.00
2023-02-02T17:19:58.354Z,100.00
2023-02-02T17:25:00.003Z,100.00
2023-02-02T17:30:03.699Z,100.00
2023-02-02T17:35:24.724Z,100.00
2023-02-02T17:40:27.030Z,100.00
2023-02-02T17:45:37.004Z,100.00
2023-02-02T17:50:39.636Z,100.00
2023-02-02T17:55:43.672Z,100.00
2023-02-02T18:00:47.790Z,100.00
2023-02-02T18:05:50.181Z,100.00
2023-02-02T18:10:51.913Z,100.00
2023-02-02T18:15:56.097Z,100.00
2023-02-02T18:20:58.977Z,100.00
2023-02-02T18:26:17.530Z,100.00
2023-02-02T18:31:21.515Z,100.00
2023-02-02T18:36:23.861Z,100.00
2023-02-02T18:41:25.774Z,100.00
2023-02-02T18:46:27.710Z,100.00
2023-02-02T18:51:31.699Z,100.00
2023-02-02T18:56:33.401Z,100.00
2023-02-02T19:01:35.532Z,100.00
2023-02-02T19:06:56.017Z,100.00
2023-02-02T19:11:58.491Z,100.00
2023-02-02T19:17:16.612Z,100.00
2023-02-02T19:22:22.135Z,100.00
2023-02-02T19:27:26.839Z,100.00
2023-02-02T19:32:32.925Z,100.00
2023-02-02T19:37:40.169Z,100.00
2023-02-02T19:42:46.209Z,100.00
2023-02-02T19:47:51.952Z,100.00
2023-02-02T19:52:55.808Z,100.00
2023-02-02T19:58:09.945Z,100.00
2023-02-02T20:03:36.421Z,100.00
2023-02-02T20:08:43.547Z,100.00
2023-02-02T20:13:48.435Z,100.00
2023-02-02T20:18:56.575Z,100.00
2023-02-02T20:23:58.595Z,100.00
2023-02-02T20:29:13.730Z,100.00
2023-02-02T20:34:18.320Z,100.00
2023-02-02T20:39:27.973Z,100.00
2023-02-02T20:44:32.535Z,100.00
2023-02-02T20:49:35.798Z,100.00
2023-02-02T20:54:38.946Z,100.00
2023-02-02T20:59:40.653Z,100.00
2023-02-02T21:04:46.588Z,100.00
2023-02-02T21:09:50.946Z,100.00
2023-02-02T21:14:53.897Z,100.00
2023-02-02T21:19:55.592Z,100.00
2023-02-02T21:24:57.291Z,100.00
2023-02-02T21:29:59.027Z,100.00
2023-02-02T21:35:00.841Z,100.00
2023-02-02T21:40:10.898Z,100.00
2023-02-02T21:45:35.222Z,100.00
2023-02-02T21:50:41.127Z,100.00
2023-02-02T21:55:44.927Z,100.00
2023-02-02T22:00:46.720Z,100.00
2023-02-02T22:05:48.384Z,100.00
2023-02-02T22:10:50.024Z,100.00
2023-02-02T22:15:53.242Z,100.00
2023-02-02T22:20:56.493Z,100.00
2023-02-02T22:25:59.050Z,100.00
2023-02-02T22:31:01.011Z,100.00
2023-02-02T22:36:03.086Z,100.00
2023-02-02T22:41:06.323Z,100.00
2023-02-02T22:46:08.102Z,100.00
2023-02-02T22:51:09.777Z,100.00
2023-02-02T22:56:11.472Z,100.00
2023-02-02T23:01:13.689Z,100.00
2023-02-02T23:06:15.493Z,100.00
2023-02-02T23:11:17.246Z,100.00
2023-02-02T23:16:19.018Z,100.00
2023-02-02T23:21:20.668Z,100.00
2023-02-02T23:26:23.299Z,100.00
2023-02-02T23:31:25.061Z,100.00
2023-02-02T23:36:26.803Z,100.00
2023-02-02T23:41:28.492Z,100.00
2023-02-02T23:46:30.999Z,100.00
2023-02-02T23:51:33.073Z,100.00
2023-02-02T23:56:34.877Z,100.00
